sensor_id;sensor_type;location;lat;lon;timestamp;P1;durP1;ratioP1;P2;durP2;ratioP2
68379;SDS011;57711;53.196;19.638;2023-04-03T00:00:56;24.10;;;7.00;;
68379;SDS011;57711;53.196;19.638;2023-04-03T00:03:23;28.30;;;11.50;;
68379;SDS011;57711;53.196;19.638;2023-04-03T00:05:51;29.90;;;10.90;;
68379;SDS011;57711;53.196;19.638;2023-04-03T00:08:18;21.40;;;7.70;;
68379;SDS011;57711;53.196;19.638;2023-04-03T00:10:46;18.40;;;6.80;;
68379;SDS011;57711;53.196;19.638;2023-04-03T00:13:16;32.60;;;12.10;;
68379;SDS011;57711;53.196;19.638;2023-04-03T00:15:43;19.70;;;7.30;;
68379;SDS011;57711;53.196;19.638;2023-04-03T00:18:11;8.90;;;3.50;;
68379;SDS011;57711;53.196;19.638;2023-04-03T00:20:39;18.90;;;6.80;;
68379;SDS011;57711;53.196;19.638;2023-04-03T00:23:06;12.90;;;4.80;;
68379;SDS011;57711;53.196;19.638;2023-04-03T00:25:33;14.10;;;6.10;;
68379;SDS011;57711;53.196;19.638;2023-04-03T00:28:01;7.60;;;3.70;;
68379;SDS011;57711;53.196;19.638;2023-04-03T00:30:30;9.10;;;3.50;;
68379;SDS011;57711;53.196;19.638;2023-04-03T00:32:57;6.20;;;2.80;;
68379;SDS011;57711;53.196;19.638;2023-04-03T00:35:25;13.00;;;5.00;;
68379;SDS011;57711;53.196;19.638;2023-04-03T00:37:52;7.50;;;3.30;;
68379;SDS011;57711;53.196;19.638;2023-04-03T00:40:21;15.80;;;5.50;;
68379;SDS011;57711;53.196;19.638;2023-04-03T00:42:55;8.30;;;3.40;;
68379;SDS011;57711;53.196;19.638;2023-04-03T00:45:30;6.30;;;2.70;;
68379;SDS011;57711;53.196;19.638;2023-04-03T00:48:01;11.00;;;3.90;;
68379;SDS011;57711;53.196;19.638;2023-04-03T00:50:32;8.90;;;3.10;;
68379;SDS011;57711;53.196;19.638;2023-04-03T00:53:03;15.50;;;6.20;;
68379;SDS011;57711;53.196;19.638;2023-04-03T00:55:33;11.10;;;4.80;;
68379;SDS011;57711;53.196;19.638;2023-04-03T00:58:03;9.00;;;3.50;;
68379;SDS011;57711;53.196;19.638;2023-04-03T01:00:31;12.10;;;5.70;;
68379;SDS011;57711;53.196;19.638;2023-04-03T01:02:58;10.20;;;4.80;;
68379;SDS011;57711;53.196;19.638;2023-04-03T01:05:27;11.80;;;4.80;;
68379;SDS011;57711;53.196;19.638;2023-04-03T01:07:54;9.30;;;3.70;;
68379;SDS011;57711;53.196;19.638;2023-04-03T01:10:22;10.10;;;4.20;;
68379;SDS011;57711;53.196;19.638;2023-04-03T01:12:50;9.30;;;4.50;;
68379;SDS011;57711;53.196;19.638;2023-04-03T01:15:23;5.50;;;3.00;;
68379;SDS011;57711;53.196;19.638;2023-04-03T01:25:36;6.10;;;2.70;;
68379;SDS011;57711;53.196;19.638;2023-04-03T01:28:07;6.80;;;2.80;;
68379;SDS011;57711;53.196;19.638;2023-04-03T01:30:41;7.40;;;3.10;;
68379;SDS011;57711;53.196;19.638;2023-04-03T01:33:31;13.90;;;5.20;;
68379;SDS011;57711;53.196;19.638;2023-04-03T01:35:59;8.80;;;2.30;;
68379;SDS011;57711;53.196;19.638;2023-04-03T01:38:27;12.10;;;4.10;;
68379;SDS011;57711;53.196;19.638;2023-04-03T01:40:54;9.40;;;3.60;;
68379;SDS011;57711;53.196;19.638;2023-04-03T01:43:21;6.40;;;2.80;;
68379;SDS011;57711;53.196;19.638;2023-04-03T01:45:49;13.70;;;4.80;;
68379;SDS011;57711;53.196;19.638;2023-04-03T01:48:16;10.10;;;3.00;;
68379;SDS011;57711;53.196;19.638;2023-04-03T01:50:44;11.30;;;2.90;;
68379;SDS011;57711;53.196;19.638;2023-04-03T01:53:11;7.40;;;3.60;;
68379;SDS011;57711;53.196;19.638;2023-04-03T01:55:38;10.40;;;4.40;;
68379;SDS011;57711;53.196;19.638;2023-04-03T01:58:06;31.10;;;11.50;;
68379;SDS011;57711;53.196;19.638;2023-04-03T02:00:33;17.10;;;5.60;;
68379;SDS011;57711;53.196;19.638;2023-04-03T02:03:01;7.20;;;3.50;;
68379;SDS011;57711;53.196;19.638;2023-04-03T02:05:28;7.90;;;2.80;;
68379;SDS011;57711;53.196;19.638;2023-04-03T02:07:56;12.10;;;4.10;;
68379;SDS011;57711;53.196;19.638;2023-04-03T02:10:23;7.30;;;2.60;;
68379;SDS011;57711;53.196;19.638;2023-04-03T02:12:50;8.60;;;3.40;;
68379;SDS011;57711;53.196;19.638;2023-04-03T02:15:18;6.60;;;2.20;;
68379;SDS011;57711;53.196;19.638;2023-04-03T02:17:46;5.60;;;2.30;;
68379;SDS011;57711;53.196;19.638;2023-04-03T02:20:13;10.50;;;3.80;;
68379;SDS011;57711;53.196;19.638;2023-04-03T02:22:41;5.40;;;2.70;;
68379;SDS011;57711;53.196;19.638;2023-04-03T02:25:08;7.20;;;2.10;;
68379;SDS011;57711;53.196;19.638;2023-04-03T02:27:37;5.60;;;1.80;;
68379;SDS011;57711;53.196;19.638;2023-04-03T02:30:04;22.50;;;5.50;;
68379;SDS011;57711;53.196;19.638;2023-04-03T02:32:32;7.10;;;2.90;;
68379;SDS011;57711;53.196;19.638;2023-04-03T02:35:02;13.90;;;4.50;;
68379;SDS011;57711;53.196;19.638;2023-04-03T02:37:30;8.70;;;3.50;;
68379;SDS011;57711;53.196;19.638;2023-04-03T02:39:58;10.50;;;4.00;;
68379;SDS011;57711;53.196;19.638;2023-04-03T02:42:27;5.20;;;2.70;;
68379;SDS011;57711;53.196;19.638;2023-04-03T02:44:54;6.30;;;2.50;;
68379;SDS011;57711;53.196;19.638;2023-04-03T02:47:24;6.30;;;3.10;;
68379;SDS011;57711;53.196;19.638;2023-04-03T02:49:51;6.50;;;3.00;;
68379;SDS011;57711;53.196;19.638;2023-04-03T02:52:19;7.00;;;2.60;;
68379;SDS011;57711;53.196;19.638;2023-04-03T02:54:47;5.70;;;2.30;;
68379;SDS011;57711;53.196;19.638;2023-04-03T02:57:15;10.20;;;3.80;;
68379;SDS011;57711;53.196;19.638;2023-04-03T02:59:42;7.90;;;3.40;;
68379;SDS011;57711;53.196;19.638;2023-04-03T03:02:11;12.10;;;4.50;;
68379;SDS011;57711;53.196;19.638;2023-04-03T03:04:38;4.80;;;2.90;;
68379;SDS011;57711;53.196;19.638;2023-04-03T03:07:06;4.30;;;2.80;;
68379;SDS011;57711;53.196;19.638;2023-04-03T03:09:33;6.80;;;3.10;;
68379;SDS011;57711;53.196;19.638;2023-04-03T03:12:00;6.00;;;2.90;;
68379;SDS011;57711;53.196;19.638;2023-04-03T03:14:29;9.00;;;2.90;;
68379;SDS011;57711;53.196;19.638;2023-04-03T03:16:56;5.80;;;2.00;;
68379;SDS011;57711;53.196;19.638;2023-04-03T03:19:23;7.60;;;2.60;;
68379;SDS011;57711;53.196;19.638;2023-04-03T03:21:51;8.40;;;2.30;;
68379;SDS011;57711;53.196;19.638;2023-04-03T03:24:18;7.60;;;2.80;;
68379;SDS011;57711;53.196;19.638;2023-04-03T03:26:47;10.00;;;3.10;;
68379;SDS011;57711;53.196;19.638;2023-04-03T03:29:14;6.40;;;3.00;;
68379;SDS011;57711;53.196;19.638;2023-04-03T03:31:43;7.90;;;2.50;;
68379;SDS011;57711;53.196;19.638;2023-04-03T03:34:10;7.90;;;2.90;;
68379;SDS011;57711;53.196;19.638;2023-04-03T03:36:38;6.20;;;3.20;;
68379;SDS011;57711;53.196;19.638;2023-04-03T03:39:05;7.30;;;2.60;;
68379;SDS011;57711;53.196;19.638;2023-04-03T03:41:32;10.70;;;2.30;;
68379;SDS011;57711;53.196;19.638;2023-04-03T03:44:00;4.80;;;2.20;;
68379;SDS011;57711;53.196;19.638;2023-04-03T03:46:29;6.50;;;2.40;;
68379;SDS011;57711;53.196;19.638;2023-04-03T03:48:57;8.40;;;2.90;;
68379;SDS011;57711;53.196;19.638;2023-04-03T03:51:24;4.20;;;2.80;;
68379;SDS011;57711;53.196;19.638;2023-04-03T03:53:52;7.60;;;2.30;;
68379;SDS011;57711;53.196;19.638;2023-04-03T03:56:19;5.60;;;3.00;;
68379;SDS011;57711;53.196;19.638;2023-04-03T03:58:47;20.20;;;9.30;;
68379;SDS011;57711;53.196;19.638;2023-04-03T04:01:14;7.30;;;4.70;;
68379;SDS011;57711;53.196;19.638;2023-04-03T04:03:46;8.70;;;4.00;;
68379;SDS011;57711;53.196;19.638;2023-04-03T04:06:16;14.90;;;10.40;;
68379;SDS011;57711;53.196;19.638;2023-04-03T04:08:44;9.70;;;5.50;;
68379;SDS011;57711;53.196;19.638;2023-04-03T04:11:12;11.40;;;6.00;;
68379;SDS011;57711;53.196;19.638;2023-04-03T04:13:40;13.80;;;7.60;;
68379;SDS011;57711;53.196;19.638;2023-04-03T04:16:08;21.80;;;11.80;;
68379;SDS011;57711;53.196;19.638;2023-04-03T04:18:37;25.90;;;13.40;;
68379;SDS011;57711;53.196;19.638;2023-04-03T04:21:04;24.20;;;13.90;;
68379;SDS011;57711;53.196;19.638;2023-04-03T04:23:32;35.60;;;21.80;;
68379;SDS011;57711;53.196;19.638;2023-04-03T04:25:59;20.00;;;14.00;;
68379;SDS011;57711;53.196;19.638;2023-04-03T04:28:28;31.50;;;16.70;;
68379;SDS011;57711;53.196;19.638;2023-04-03T04:30:56;30.00;;;16.40;;
68379;SDS011;57711;53.196;19.638;2023-04-03T04:33:25;28.10;;;13.50;;
68379;SDS011;57711;53.196;19.638;2023-04-03T04:35:52;50.20;;;22.10;;
68379;SDS011;57711;53.196;19.638;2023-04-03T04:38:20;66.70;;;25.80;;
68379;SDS011;57711;53.196;19.638;2023-04-03T04:40:48;242.30;;;122.30;;
68379;SDS011;57711;53.196;19.638;2023-04-03T04:43:15;98.50;;;52.80;;
68379;SDS011;57711;53.196;19.638;2023-04-03T04:45:44;45.10;;;22.30;;
68379;SDS011;57711;53.196;19.638;2023-04-03T04:48:11;29.30;;;14.40;;
68379;SDS011;57711;53.196;19.638;2023-04-03T04:50:38;18.20;;;9.90;;
68379;SDS011;57711;53.196;19.638;2023-04-03T04:53:05;13.10;;;5.00;;
68379;SDS011;57711;53.196;19.638;2023-04-03T04:55:33;12.10;;;6.00;;
68379;SDS011;57711;53.196;19.638;2023-04-03T04:58:00;12.70;;;6.10;;
68379;SDS011;57711;53.196;19.638;2023-04-03T05:00:29;14.10;;;8.40;;
68379;SDS011;57711;53.196;19.638;2023-04-03T05:02:56;32.60;;;16.80;;
68379;SDS011;57711;53.196;19.638;2023-04-03T05:05:23;15.00;;;9.00;;
68379;SDS011;57711;53.196;19.638;2023-04-03T05:07:51;38.80;;;19.50;;
68379;SDS011;57711;53.196;19.638;2023-04-03T05:10:18;68.70;;;28.50;;
68379;SDS011;57711;53.196;19.638;2023-04-03T05:12:46;49.20;;;21.00;;
68379;SDS011;57711;53.196;19.638;2023-04-03T05:15:13;23.20;;;12.10;;
68379;SDS011;57711;53.196;19.638;2023-04-03T05:17:41;52.50;;;21.70;;
68379;SDS011;57711;53.196;19.638;2023-04-03T05:20:11;29.80;;;14.80;;
68379;SDS011;57711;53.196;19.638;2023-04-03T05:22:39;23.30;;;10.60;;
68379;SDS011;57711;53.196;19.638;2023-04-03T05:25:07;26.30;;;12.30;;
68379;SDS011;57711;53.196;19.638;2023-04-03T05:27:35;26.50;;;13.20;;
68379;SDS011;57711;53.196;19.638;2023-04-03T05:30:03;32.90;;;14.10;;
68379;SDS011;57711;53.196;19.638;2023-04-03T05:32:31;16.70;;;7.10;;
68379;SDS011;57711;53.196;19.638;2023-04-03T05:35:09;33.80;;;13.40;;
68379;SDS011;57711;53.196;19.638;2023-04-03T05:37:37;26.70;;;12.30;;
68379;SDS011;57711;53.196;19.638;2023-04-03T05:40:05;24.50;;;11.10;;
68379;SDS011;57711;53.196;19.638;2023-04-03T05:42:34;30.70;;;12.80;;
68379;SDS011;57711;53.196;19.638;2023-04-03T05:45:01;30.30;;;13.70;;
68379;SDS011;57711;53.196;19.638;2023-04-03T05:47:29;16.60;;;8.50;;
68379;SDS011;57711;53.196;19.638;2023-04-03T05:49:57;21.10;;;9.80;;
68379;SDS011;57711;53.196;19.638;2023-04-03T05:55:02;8.80;;;4.10;;
68379;SDS011;57711;53.196;19.638;2023-04-03T05:57:31;17.50;;;8.70;;
68379;SDS011;57711;53.196;19.638;2023-04-03T05:59:58;26.90;;;11.40;;
68379;SDS011;57711;53.196;19.638;2023-04-03T06:02:26;11.60;;;6.10;;
68379;SDS011;57711;53.196;19.638;2023-04-03T06:04:53;13.00;;;3.00;;
68379;SDS011;57711;53.196;19.638;2023-04-03T06:07:22;10.30;;;3.80;;
68379;SDS011;57711;53.196;19.638;2023-04-03T06:09:50;17.40;;;6.00;;
68379;SDS011;57711;53.196;19.638;2023-04-03T06:12:18;18.60;;;5.70;;
68379;SDS011;57711;53.196;19.638;2023-04-03T06:14:47;14.80;;;5.80;;
68379;SDS011;57711;53.196;19.638;2023-04-03T06:17:15;10.00;;;4.10;;
68379;SDS011;57711;53.196;19.638;2023-04-03T06:19:43;12.00;;;4.80;;
68379;SDS011;57711;53.196;19.638;2023-04-03T06:22:11;25.70;;;9.30;;
68379;SDS011;57711;53.196;19.638;2023-04-03T06:24:38;14.60;;;5.80;;
68379;SDS011;57711;53.196;19.638;2023-04-03T06:27:07;12.00;;;4.60;;
68379;SDS011;57711;53.196;19.638;2023-04-03T06:29:34;47.00;;;18.30;;
68379;SDS011;57711;53.196;19.638;2023-04-03T06:32:02;12.70;;;6.20;;
68379;SDS011;57711;53.196;19.638;2023-04-03T06:34:29;12.80;;;5.00;;
68379;SDS011;57711;53.196;19.638;2023-04-03T06:36:56;15.10;;;5.80;;
68379;SDS011;57711;53.196;19.638;2023-04-03T06:39:23;34.50;;;15.00;;
68379;SDS011;57711;53.196;19.638;2023-04-03T06:41:51;23.90;;;10.30;;
68379;SDS011;57711;53.196;19.638;2023-04-03T06:44:25;26.40;;;13.00;;
68379;SDS011;57711;53.196;19.638;2023-04-03T06:46:52;22.20;;;10.20;;
68379;SDS011;57711;53.196;19.638;2023-04-03T06:49:21;21.40;;;10.10;;
68379;SDS011;57711;53.196;19.638;2023-04-03T06:51:48;23.80;;;13.90;;
68379;SDS011;57711;53.196;19.638;2023-04-03T06:54:15;19.40;;;6.70;;
68379;SDS011;57711;53.196;19.638;2023-04-03T06:56:42;10.10;;;3.70;;
68379;SDS011;57711;53.196;19.638;2023-04-03T06:59:10;13.90;;;6.00;;
68379;SDS011;57711;53.196;19.638;2023-04-03T07:01:40;44.00;;;24.80;;
68379;SDS011;57711;53.196;19.638;2023-04-03T07:04:08;21.80;;;11.20;;
68379;SDS011;57711;53.196;19.638;2023-04-03T07:06:36;13.20;;;6.20;;
68379;SDS011;57711;53.196;19.638;2023-04-03T07:09:03;15.30;;;6.70;;
68379;SDS011;57711;53.196;19.638;2023-04-03T07:11:30;9.40;;;4.50;;
68379;SDS011;57711;53.196;19.638;2023-04-03T07:13:58;10.70;;;4.10;;
68379;SDS011;57711;53.196;19.638;2023-04-03T07:16:25;13.40;;;5.00;;
68379;SDS011;57711;53.196;19.638;2023-04-03T07:18:53;10.90;;;3.20;;
68379;SDS011;57711;53.196;19.638;2023-04-03T07:21:20;18.10;;;6.80;;
68379;SDS011;57711;53.196;19.638;2023-04-03T07:23:47;11.50;;;2.90;;
68379;SDS011;57711;53.196;19.638;2023-04-03T07:26:15;17.60;;;6.70;;
68379;SDS011;57711;53.196;19.638;2023-04-03T07:28:42;10.10;;;4.80;;
68379;SDS011;57711;53.196;19.638;2023-04-03T07:31:11;8.30;;;3.40;;
68379;SDS011;57711;53.196;19.638;2023-04-03T07:33:40;27.20;;;7.40;;
68379;SDS011;57711;53.196;19.638;2023-04-03T07:36:09;8.10;;;4.70;;
68379;SDS011;57711;53.196;19.638;2023-04-03T07:38:37;6.40;;;2.80;;
68379;SDS011;57711;53.196;19.638;2023-04-03T07:41:05;6.70;;;3.60;;
68379;SDS011;57711;53.196;19.638;2023-04-03T07:43:32;35.30;;;14.80;;
68379;SDS011;57711;53.196;19.638;2023-04-03T07:46:01;27.20;;;10.30;;
68379;SDS011;57711;53.196;19.638;2023-04-03T07:48:29;33.30;;;14.50;;
68379;SDS011;57711;53.196;19.638;2023-04-03T07:50:59;45.30;;;14.10;;
68379;SDS011;57711;53.196;19.638;2023-04-03T07:53:27;8.40;;;3.90;;
68379;SDS011;57711;53.196;19.638;2023-04-03T07:55:56;23.50;;;7.40;;
68379;SDS011;57711;53.196;19.638;2023-04-03T07:58:24;25.00;;;8.40;;
68379;SDS011;57711;53.196;19.638;2023-04-03T08:00:52;9.30;;;4.60;;
68379;SDS011;57711;53.196;19.638;2023-04-03T08:03:19;55.70;;;16.70;;
68379;SDS011;57711;53.196;19.638;2023-04-03T08:05:47;55.10;;;18.80;;
68379;SDS011;57711;53.196;19.638;2023-04-03T08:08:17;32.70;;;10.30;;
68379;SDS011;57711;53.196;19.638;2023-04-03T08:10:50;38.90;;;12.50;;
68379;SDS011;57711;53.196;19.638;2023-04-03T08:13:21;27.30;;;10.50;;
68379;SDS011;57711;53.196;19.638;2023-04-03T08:15:49;9.00;;;3.80;;
68379;SDS011;57711;53.196;19.638;2023-04-03T08:18:16;9.30;;;3.80;;
68379;SDS011;57711;53.196;19.638;2023-04-03T08:20:45;21.10;;;4.90;;
68379;SDS011;57711;53.196;19.638;2023-04-03T08:23:12;12.00;;;4.40;;
68379;SDS011;57711;53.196;19.638;2023-04-03T08:25:40;7.60;;;4.20;;
68379;SDS011;57711;53.196;19.638;2023-04-03T08:28:11;8.10;;;4.30;;
68379;SDS011;57711;53.196;19.638;2023-04-03T08:30:40;3.80;;;1.80;;
68379;SDS011;57711;53.196;19.638;2023-04-03T08:33:09;12.00;;;4.90;;
68379;SDS011;57711;53.196;19.638;2023-04-03T08:35:40;13.10;;;6.70;;
68379;SDS011;57711;53.196;19.638;2023-04-03T08:38:09;11.30;;;5.20;;
68379;SDS011;57711;53.196;19.638;2023-04-03T08:40:37;6.10;;;3.70;;
68379;SDS011;57711;53.196;19.638;2023-04-03T08:46:02;10.10;;;3.30;;
68379;SDS011;57711;53.196;19.638;2023-04-03T08:48:34;12.50;;;3.80;;
68379;SDS011;57711;53.196;19.638;2023-04-03T08:51:17;11.70;;;6.00;;
68379;SDS011;57711;53.196;19.638;2023-04-03T08:53:55;8.40;;;2.80;;
68379;SDS011;57711;53.196;19.638;2023-04-03T08:56:29;11.50;;;6.00;;
68379;SDS011;57711;53.196;19.638;2023-04-03T08:58:58;4.60;;;2.10;;
68379;SDS011;57711;53.196;19.638;2023-04-03T09:01:34;10.30;;;3.10;;
68379;SDS011;57711;53.196;19.638;2023-04-03T09:04:02;10.00;;;4.40;;
68379;SDS011;57711;53.196;19.638;2023-04-03T09:06:38;2.40;;;1.40;;
68379;SDS011;57711;53.196;19.638;2023-04-03T09:16:54;6.70;;;2.10;;
68379;SDS011;57711;53.196;19.638;2023-04-03T09:19:39;10.70;;;3.70;;
68379;SDS011;57711;53.196;19.638;2023-04-03T09:24:58;12.60;;;5.40;;
68379;SDS011;57711;53.196;19.638;2023-04-03T09:27:34;4.60;;;2.40;;
68379;SDS011;57711;53.196;19.638;2023-04-03T09:30:02;5.20;;;2.30;;
68379;SDS011;57711;53.196;19.638;2023-04-03T09:32:31;3.90;;;1.40;;
68379;SDS011;57711;53.196;19.638;2023-04-03T09:35:02;3.10;;;1.90;;
68379;SDS011;57711;53.196;19.638;2023-04-03T09:37:51;6.20;;;3.40;;
68379;SDS011;57711;53.196;19.638;2023-04-03T09:42:54;5.90;;;2.50;;
68379;SDS011;57711;53.196;19.638;2023-04-03T09:45:28;11.10;;;2.30;;
68379;SDS011;57711;53.196;19.638;2023-04-03T09:48:17;5.00;;;1.40;;
68379;SDS011;57711;53.196;19.638;2023-04-03T09:53:36;5.70;;;3.00;;
68379;SDS011;57711;53.196;19.638;2023-04-03T09:58:45;6.40;;;2.30;;
68379;SDS011;57711;53.196;19.638;2023-04-03T10:01:36;3.70;;;2.00;;
68379;SDS011;57711;53.196;19.638;2023-04-03T10:04:15;6.10;;;2.70;;
68379;SDS011;57711;53.196;19.638;2023-04-03T10:06:50;5.40;;;3.30;;
68379;SDS011;57711;53.196;19.638;2023-04-03T10:09:21;8.10;;;3.50;;
68379;SDS011;57711;53.196;19.638;2023-04-03T10:12:11;4.70;;;1.80;;
68379;SDS011;57711;53.196;19.638;2023-04-03T10:14:57;5.80;;;1.60;;
68379;SDS011;57711;53.196;19.638;2023-04-03T10:17:31;7.10;;;1.80;;
68379;SDS011;57711;53.196;19.638;2023-04-03T10:20:10;4.80;;;1.70;;
68379;SDS011;57711;53.196;19.638;2023-04-03T10:23:00;5.80;;;1.30;;
68379;SDS011;57711;53.196;19.638;2023-04-03T10:25:43;4.40;;;1.50;;
68379;SDS011;57711;53.196;19.638;2023-04-03T10:31:57;2.50;;;1.20;;
68379;SDS011;57711;53.196;19.638;2023-04-03T10:34:35;2.20;;;0.90;;
68379;SDS011;57711;53.196;19.638;2023-04-03T10:54:26;6.80;;;2.60;;
68379;SDS011;57711;53.196;19.638;2023-04-03T10:57:04;3.60;;;1.60;;
68379;SDS011;57711;53.196;19.638;2023-04-03T11:02:26;1.80;;;1.10;;
68379;SDS011;57711;53.196;19.638;2023-04-03T11:07:40;3.30;;;1.60;;
68379;SDS011;57711;53.196;19.638;2023-04-03T11:10:28;10.20;;;3.20;;
68379;SDS011;57711;53.196;19.638;2023-04-03T11:13:12;16.30;;;4.70;;
68379;SDS011;57711;53.196;19.638;2023-04-03T11:15:43;9.20;;;3.10;;
68379;SDS011;57711;53.196;19.638;2023-04-03T11:18:17;25.50;;;8.40;;
68379;SDS011;57711;53.196;19.638;2023-04-03T11:21:02;7.00;;;2.80;;
68379;SDS011;57711;53.196;19.638;2023-04-03T11:23:35;5.00;;;2.00;;
68379;SDS011;57711;53.196;19.638;2023-04-03T11:26:19;4.10;;;1.60;;
68379;SDS011;57711;53.196;19.638;2023-04-03T11:28:53;12.20;;;6.10;;
68379;SDS011;57711;53.196;19.638;2023-04-03T11:34:15;11.40;;;5.20;;
68379;SDS011;57711;53.196;19.638;2023-04-03T11:36:53;14.10;;;5.40;;
68379;SDS011;57711;53.196;19.638;2023-04-03T11:39:33;9.90;;;4.30;;
68379;SDS011;57711;53.196;19.638;2023-04-03T11:42:15;2.40;;;1.20;;
68379;SDS011;57711;53.196;19.638;2023-04-03T11:47:50;6.00;;;2.10;;
68379;SDS011;57711;53.196;19.638;2023-04-03T11:50:39;2.40;;;1.20;;
68379;SDS011;57711;53.196;19.638;2023-04-03T12:11:22;6.40;;;3.70;;
68379;SDS011;57711;53.196;19.638;2023-04-03T12:16:25;13.20;;;6.30;;
68379;SDS011;57711;53.196;19.638;2023-04-03T12:18:55;8.50;;;5.00;;
68379;SDS011;57711;53.196;19.638;2023-04-03T12:26:46;26.10;;;10.30;;
68379;SDS011;57711;53.196;19.638;2023-04-03T12:48:33;12.30;;;4.00;;
68379;SDS011;57711;53.196;19.638;2023-04-03T12:51:05;25.40;;;7.70;;
68379;SDS011;57711;53.196;19.638;2023-04-03T12:53:34;29.70;;;9.50;;
68379;SDS011;57711;53.196;19.638;2023-04-03T12:58:50;5.70;;;3.00;;
68379;SDS011;57711;53.196;19.638;2023-04-03T13:01:26;8.30;;;4.90;;
68379;SDS011;57711;53.196;19.638;2023-04-03T13:03:54;8.00;;;3.60;;
68379;SDS011;57711;53.196;19.638;2023-04-03T13:06:25;51.20;;;21.90;;
68379;SDS011;57711;53.196;19.638;2023-04-03T13:08:56;24.20;;;6.90;;
68379;SDS011;57711;53.196;19.638;2023-04-03T13:11:38;33.80;;;9.60;;
68379;SDS011;57711;53.196;19.638;2023-04-03T13:14:17;13.00;;;5.00;;
68379;SDS011;57711;53.196;19.638;2023-04-03T13:16:59;15.90;;;4.20;;
68379;SDS011;57711;53.196;19.638;2023-04-03T13:19:30;16.40;;;5.70;;
68379;SDS011;57711;53.196;19.638;2023-04-03T13:22:02;41.00;;;17.30;;
68379;SDS011;57711;53.196;19.638;2023-04-03T13:24:33;30.60;;;14.10;;
68379;SDS011;57711;53.196;19.638;2023-04-03T13:27:04;23.20;;;8.80;;
68379;SDS011;57711;53.196;19.638;2023-04-03T13:29:34;23.90;;;9.90;;
68379;SDS011;57711;53.196;19.638;2023-04-03T13:32:03;18.80;;;8.80;;
68379;SDS011;57711;53.196;19.638;2023-04-03T13:34:37;18.50;;;7.00;;
68379;SDS011;57711;53.196;19.638;2023-04-03T13:42:36;21.70;;;8.10;;
68379;SDS011;57711;53.196;19.638;2023-04-03T13:45:24;21.90;;;9.50;;
68379;SDS011;57711;53.196;19.638;2023-04-03T13:48:09;17.40;;;5.80;;
68379;SDS011;57711;53.196;19.638;2023-04-03T13:50:54;19.00;;;7.90;;
68379;SDS011;57711;53.196;19.638;2023-04-03T13:53:28;7.90;;;3.90;;
68379;SDS011;57711;53.196;19.638;2023-04-03T13:58:31;7.00;;;3.60;;
68379;SDS011;57711;53.196;19.638;2023-04-03T14:01:07;6.50;;;3.10;;
68379;SDS011;57711;53.196;19.638;2023-04-03T14:06:10;14.40;;;6.00;;
68379;SDS011;57711;53.196;19.638;2023-04-03T14:08:40;11.90;;;4.80;;
68379;SDS011;57711;53.196;19.638;2023-04-03T14:11:22;8.50;;;3.50;;
68379;SDS011;57711;53.196;19.638;2023-04-03T14:13:55;9.50;;;3.70;;
68379;SDS011;57711;53.196;19.638;2023-04-03T14:16:28;5.60;;;2.70;;
68379;SDS011;57711;53.196;19.638;2023-04-03T14:18:59;5.70;;;3.10;;
68379;SDS011;57711;53.196;19.638;2023-04-03T14:21:26;5.90;;;2.80;;
68379;SDS011;57711;53.196;19.638;2023-04-03T14:23:53;6.50;;;3.10;;
68379;SDS011;57711;53.196;19.638;2023-04-03T14:26:21;10.70;;;3.60;;
68379;SDS011;57711;53.196;19.638;2023-04-03T14:28:51;6.70;;;2.40;;
68379;SDS011;57711;53.196;19.638;2023-04-03T14:31:20;9.10;;;2.80;;
68379;SDS011;57711;53.196;19.638;2023-04-03T14:33:49;13.50;;;3.30;;
68379;SDS011;57711;53.196;19.638;2023-04-03T14:36:18;7.00;;;3.20;;
68379;SDS011;57711;53.196;19.638;2023-04-03T14:38:48;4.50;;;2.50;;
68379;SDS011;57711;53.196;19.638;2023-04-03T14:41:17;4.80;;;2.10;;
68379;SDS011;57711;53.196;19.638;2023-04-03T14:43:47;15.10;;;7.40;;
68379;SDS011;57711;53.196;19.638;2023-04-03T14:48:58;6.80;;;2.20;;
68379;SDS011;57711;53.196;19.638;2023-04-03T14:51:26;6.60;;;2.10;;
68379;SDS011;57711;53.196;19.638;2023-04-03T14:53:53;6.40;;;2.00;;
68379;SDS011;57711;53.196;19.638;2023-04-03T14:56:23;6.50;;;2.60;;
68379;SDS011;57711;53.196;19.638;2023-04-03T14:58:58;6.60;;;2.50;;
68379;SDS011;57711;53.196;19.638;2023-04-03T15:03:57;10.40;;;4.00;;
68379;SDS011;57711;53.196;19.638;2023-04-03T15:06:24;19.90;;;7.90;;
68379;SDS011;57711;53.196;19.638;2023-04-03T15:08:52;14.10;;;7.90;;
68379;SDS011;57711;53.196;19.638;2023-04-03T15:11:20;8.80;;;4.30;;
68379;SDS011;57711;53.196;19.638;2023-04-03T15:13:47;42.00;;;18.90;;
68379;SDS011;57711;53.196;19.638;2023-04-03T15:16:18;30.30;;;13.90;;
68379;SDS011;57711;53.196;19.638;2023-04-03T15:18:47;64.20;;;41.80;;
68379;SDS011;57711;53.196;19.638;2023-04-03T15:21:14;115.10;;;67.70;;
68379;SDS011;57711;53.196;19.638;2023-04-03T15:23:42;58.90;;;34.10;;
68379;SDS011;57711;53.196;19.638;2023-04-03T15:26:09;234.50;;;96.30;;
68379;SDS011;57711;53.196;19.638;2023-04-03T15:28:39;142.30;;;49.60;;
68379;SDS011;57711;53.196;19.638;2023-04-03T15:31:08;173.90;;;62.10;;
68379;SDS011;57711;53.196;19.638;2023-04-03T15:33:36;86.10;;;31.50;;
68379;SDS011;57711;53.196;19.638;2023-04-03T15:36:04;319.30;;;128.50;;
68379;SDS011;57711;53.196;19.638;2023-04-03T15:38:33;243.40;;;98.00;;
68379;SDS011;57711;53.196;19.638;2023-04-03T15:41:01;105.80;;;47.80;;
68379;SDS011;57711;53.196;19.638;2023-04-03T15:43:28;87.70;;;41.80;;
68379;SDS011;57711;53.196;19.638;2023-04-03T15:45:56;39.80;;;22.40;;
68379;SDS011;57711;53.196;19.638;2023-04-03T15:48:26;35.10;;;19.20;;
68379;SDS011;57711;53.196;19.638;2023-04-03T15:50:55;30.10;;;15.40;;
68379;SDS011;57711;53.196;19.638;2023-04-03T15:53:24;271.20;;;111.40;;
68379;SDS011;57711;53.196;19.638;2023-04-03T15:55:52;88.70;;;45.20;;
68379;SDS011;57711;53.196;19.638;2023-04-03T15:58:19;93.20;;;37.20;;
68379;SDS011;57711;53.196;19.638;2023-04-03T16:00:46;29.90;;;12.60;;
68379;SDS011;57711;53.196;19.638;2023-04-03T16:03:18;50.60;;;16.60;;
68379;SDS011;57711;53.196;19.638;2023-04-03T16:05:47;54.10;;;19.20;;
68379;SDS011;57711;53.196;19.638;2023-04-03T16:08:14;44.10;;;17.70;;
68379;SDS011;57711;53.196;19.638;2023-04-03T16:10:42;65.50;;;28.10;;
68379;SDS011;57711;53.196;19.638;2023-04-03T16:13:12;40.60;;;19.40;;
68379;SDS011;57711;53.196;19.638;2023-04-03T16:15:40;43.30;;;18.80;;
68379;SDS011;57711;53.196;19.638;2023-04-03T16:18:08;40.00;;;18.40;;
68379;SDS011;57711;53.196;19.638;2023-04-03T16:20:36;24.60;;;11.00;;
68379;SDS011;57711;53.196;19.638;2023-04-03T16:23:04;24.90;;;11.30;;
68379;SDS011;57711;53.196;19.638;2023-04-03T16:25:31;12.00;;;5.20;;
68379;SDS011;57711;53.196;19.638;2023-04-03T16:27:59;8.60;;;4.00;;
68379;SDS011;57711;53.196;19.638;2023-04-03T16:30:26;8.40;;;3.70;;
68379;SDS011;57711;53.196;19.638;2023-04-03T16:32:53;15.70;;;6.60;;
68379;SDS011;57711;53.196;19.638;2023-04-03T16:35:22;7.50;;;4.10;;
68379;SDS011;57711;53.196;19.638;2023-04-03T16:37:49;12.90;;;6.70;;
68379;SDS011;57711;53.196;19.638;2023-04-03T16:40:17;10.40;;;6.00;;
68379;SDS011;57711;53.196;19.638;2023-04-03T16:42:44;10.00;;;5.20;;
68379;SDS011;57711;53.196;19.638;2023-04-03T16:45:12;10.60;;;4.50;;
68379;SDS011;57711;53.196;19.638;2023-04-03T16:47:39;24.20;;;12.10;;